Time;durP1;ratioP1;P1;durP2;ratioP2;P2;SDS_P1;SDS_P2;PMS_P1;PMS_P2;Temp;Humidity;BMP_temperature;BMP_pressure;BME280_temperature;BME280_humidity;BME280_pressure;Samples;Min_cycle;Max_cycle;Signal;HPM_P1;HPM_P2
2021/06/22 00:00:18;;;;;;;4.88;4.30;;;20.90;99.90;;;;;;5086116;28;20555;-75
2021/06/22 00:02:45;;;;;;;5.20;4.03;;;20.90;99.90;;;;;;5080554;28;20478;-75
2021/06/22 00:05:11;;;;;;;4.47;4.07;;;20.90;99.90;;;;;;5072673;28;20024;-75
2021/06/22 00:07:36;;;;;;;6.22;4.03;;;20.90;99.90;;;;;;5072307;28;20024;-75
2021/06/22 00:10:04;;;;;;;5.10;4.13;;;20.80;99.90;;;;;;5072516;28;20028;-75
2021/06/22 00:12:30;;;;;;;5.05;4.35;;;20.80;99.90;;;;;;5081474;28;20501;-75
2021/06/22 00:14:55;;;;;;;5.18;4.00;;;20.80;99.90;;;;;;5092731;28;20028;-75
2021/06/22 00:17:21;;;;;;;5.20;4.35;;;20.80;99.90;;;;;;5093007;28;20104;-75
2021/06/22 00:19:47;;;;;;;4.18;3.78;;;20.80;99.90;;;;;;5080991;28;20040;-75
2021/06/22 00:22:12;;;;;;;4.85;4.07;;;20.80;99.90;;;;;;5078709;28;20515;-74
2021/06/22 00:24:38;;;;;;;4.97;3.83;;;20.80;99.90;;;;;;5092349;28;20070;-75
2021/06/22 00:27:04;;;;;;;4.93;4.00;;;20.80;99.90;;;;;;5092481;28;20020;-75
2021/06/22 00:29:29;;;;;;;4.72;3.65;;;20.80;99.90;;;;;;5090821;28;20016;-75
2021/06/22 00:31:55;;;;;;;4.32;3.92;;;20.80;99.90;;;;;;5087814;28;20122;-75
2021/06/22 00:34:21;;;;;;;4.90;3.78;;;20.80;99.90;;;;;;5072391;28;20016;-75
2021/06/22 00:36:47;;;;;;;5.15;3.72;;;20.70;99.90;;;;;;5071725;28;20052;-75
2021/06/22 00:39:12;;;;;;;4.90;3.30;;;20.70;99.90;;;;;;5072171;28;20032;-75
2021/06/22 00:41:38;;;;;;;5.50;3.65;;;20.70;99.90;;;;;;5072915;28;20090;-74
2021/06/22 00:44:08;;;;;;;5.07;3.38;;;20.70;99.90;;;;;;5092184;28;20384;-75
2021/06/22 00:46:35;;;;;;;5.05;3.60;;;20.70;99.90;;;;;;5091922;28;20031;-75
2021/06/22 00:49:01;;;;;;;4.28;3.30;;;20.70;99.90;;;;;;5086208;28;20075;-74
2021/06/22 00:51:27;;;;;;;5.03;3.60;;;20.70;99.90;;;;;;5071221;28;20421;-75
2021/06/22 00:53:55;;;;;;;4.20;3.50;;;20.70;99.90;;;;;;5072182;28;20056;-75
2021/06/22 00:56:23;;;;;;;4.15;3.40;;;20.70;99.90;;;;;;5072065;28;20021;-74
2021/06/22 00:58:49;;;;;;;5.05;3.47;;;20.70;99.90;;;;;;5071494;28;20047;-74
2021/06/22 01:01:15;;;;;;;3.38;2.90;;;20.60;99.90;;;;;;5071545;28;20380;-75
2021/06/22 01:03:40;;;;;;;3.40;3.10;;;20.60;99.90;;;;;;5087805;28;20043;-74
2021/06/22 01:06:09;;;;;;;4.18;3.10;;;20.60;99.90;;;;;;5091869;28;20027;-74
2021/06/22 01:08:34;;;;;;;4.05;3.30;;;20.60;99.90;;;;;;5091575;28;20024;-74
2021/06/22 01:11:00;;;;;;;5.50;3.60;;;20.60;99.90;;;;;;5091675;28;20428;-74
2021/06/22 01:13:26;;;;;;;4.35;3.22;;;20.60;99.90;;;;;;5076158;28;20036;-74
2021/06/22 01:15:51;;;;;;;3.95;3.38;;;20.60;99.90;;;;;;5071843;28;20465;-74
2021/06/22 01:18:17;;;;;;;4.28;3.65;;;20.60;99.90;;;;;;5071239;28;20044;-74
2021/06/22 01:20:43;;;;;;;5.10;3.50;;;20.60;99.90;;;;;;5066818;28;20959;-74
2021/06/22 01:23:09;;;;;;;5.00;3.78;;;20.60;99.90;;;;;;5081940;28;20036;-74
2021/06/22 01:25:36;;;;;;;5.65;3.50;;;20.60;99.90;;;;;;5091418;28;20388;-74
2021/06/22 01:28:01;;;;;;;4.30;3.70;;;20.60;99.90;;;;;;5091605;28;20054;-75
2021/06/22 01:30:29;;;;;;;4.43;3.78;;;20.60;99.90;;;;;;5078043;28;20025;-74
2021/06/22 01:32:56;;;;;;;4.07;3.60;;;20.50;99.90;;;;;;5073771;28;20040;-74
2021/06/22 01:35:24;;;;;;;5.35;3.90;;;20.60;99.90;;;;;;5071342;28;20035;-74
2021/06/22 01:37:57;;;;;;;3.67;3.35;;;20.60;99.90;;;;;;5071757;28;20033;-74
2021/06/22 01:40:24;;;;;;;6.20;4.00;;;20.60;99.90;;;;;;5071571;28;20035;-74
2021/06/22 01:42:50;;;;;;;4.50;3.35;;;20.50;99.90;;;;;;5078963;28;20719;-73
2021/06/22 01:45:17;;;;;;;4.00;3.60;;;20.50;99.90;;;;;;5091406;28;20047;-74
2021/06/22 01:47:43;;;;;;;4.40;4.00;;;20.50;99.90;;;;;;5090922;28;20024;-74
2021/06/22 01:50:11;;;;;;;4.57;3.95;;;20.50;99.90;;;;;;5073876;28;20492;-74
2021/06/22 01:52:37;;;;;;;4.70;3.80;;;20.50;99.90;;;;;;5081431;28;20036;-74
2021/06/22 01:57:49;;;;;;;4.03;3.50;;;20.50;99.90;;;;;;5091759;28;20530;-75
2021/06/22 02:00:16;;;;;;;4.20;3.80;;;20.50;99.90;;;;;;5077818;28;20021;-75
2021/06/22 02:02:42;;;;;;;3.92;3.50;;;20.40;99.90;;;;;;5063413;28;20036;-75
2021/06/22 02:05:08;;;;;;;4.03;3.22;;;20.50;99.90;;;;;;5069813;28;20024;-74
2021/06/22 02:07:34;;;;;;;3.70;3.38;;;20.40;99.90;;;;;;5070775;28;20035;-74
2021/06/22 02:09:59;;;;;;;4.22;3.35;;;20.40;99.90;;;;;;5069487;28;20032;-74
2021/06/22 02:12:25;;;;;;;4.18;3.63;;;20.40;99.90;;;;;;5078297;28;20024;-75
2021/06/22 02:14:51;;;;;;;4.60;4.00;;;20.40;99.90;;;;;;5091425;28;20415;-74
2021/06/22 02:17:16;;;;;;;4.13;3.33;;;20.40;99.90;;;;;;5091013;28;20035;-74
2021/06/22 02:19:42;;;;;;;4.53;3.40;;;20.40;99.90;;;;;;5078777;28;20020;-74
2021/06/22 02:22:08;;;;;;;4.22;3.83;;;20.40;99.90;;;;;;5075869;28;20098;-74
2021/06/22 02:24:33;;;;;;;5.35;3.90;;;20.40;99.90;;;;;;5090864;28;20028;-74
2021/06/22 02:26:59;;;;;;;4.05;3.35;;;20.40;99.90;;;;;;5094824;28;20379;-75
2021/06/22 02:29:24;;;;;;;4.63;3.65;;;20.30;99.90;;;;;;5094550;28;20052;-75
2021/06/22 02:31:50;;;;;;;4.18;3.33;;;20.30;99.90;;;;;;5090706;28;20111;-75
2021/06/22 02:34:16;;;;;;;4.35;3.55;;;20.40;99.90;;;;;;5074419;28;20121;-74
2021/06/22 02:36:42;;;;;;;4.05;3.30;;;20.30;99.90;;;;;;5074176;28;20021;-75
2021/06/22 02:39:07;;;;;;;4.25;3.20;;;20.30;99.90;;;;;;5074336;28;20487;-74
2021/06/22 02:41:33;;;;;;;3.80;3.40;;;20.40;99.90;;;;;;5073889;28;20048;-75
2021/06/22 02:43:59;;;;;;;5.05;3.42;;;20.30;99.90;;;;;;5054306;28;20036;-74
2021/06/22 02:46:24;;;;;;;4.93;3.63;;;20.30;99.90;;;;;;5054015;28;20029;-74
2021/06/22 02:48:50;;;;;;;4.32;3.42;;;20.30;99.90;;;;;;5058574;28;20075;-76
2021/06/22 02:51:16;;;;;;;5.65;3.58;;;20.30;99.90;;;;;;5074180;28;20108;-75
2021/06/22 02:53:41;;;;;;;6.35;3.40;;;20.30;99.90;;;;;;5073961;28;20059;-74
2021/06/22 02:56:07;;;;;;;5.00;3.92;;;20.30;99.90;;;;;;5073993;28;20059;-76
2021/06/22 02:58:32;;;;;;;4.55;3.10;;;20.20;99.90;;;;;;5073451;28;20028;-76
2021/06/22 03:00:58;;;;;;;4.80;3.42;;;20.20;99.90;;;;;;5073930;28;20486;-76
2021/06/22 03:03:24;;;;;;;4.18;3.47;;;20.20;99.90;;;;;;5074155;28;20032;-75
2021/06/22 03:05:49;;;;;;;4.82;3.38;;;20.20;99.90;;;;;;5074204;28;20520;-75
2021/06/22 03:08:15;;;;;;;4.93;3.65;;;20.20;99.90;;;;;;5073452;28;20484;-74
2021/06/22 03:10:41;;;;;;;4.70;3.47;;;20.20;99.90;;;;;;5073125;28;20063;-74
2021/06/22 03:13:06;;;;;;;4.13;3.17;;;20.10;99.90;;;;;;5091328;28;20025;-75
2021/06/22 03:15:32;;;;;;;5.47;3.33;;;20.20;99.90;;;;;;5093621;28;20348;-75
2021/06/22 03:17:58;;;;;;;4.70;3.17;;;20.20;99.90;;;;;;5092914;28;20030;-74
2021/06/22 03:20:24;;;;;;;4.70;3.20;;;20.10;99.90;;;;;;5094199;28;20048;-74
2021/06/22 03:22:49;;;;;;;5.85;3.20;;;20.10;99.90;;;;;;5077965;28;20040;-75
2021/06/22 03:25:15;;;;;;;4.45;3.03;;;20.20;99.90;;;;;;5072716;28;20434;-74
2021/06/22 03:27:41;;;;;;;4.57;3.20;;;20.10;99.90;;;;;;5073131;28;20029;-74
2021/06/22 03:30:10;;;;;;;5.68;3.20;;;20.10;99.90;;;;;;5073427;28;20027;-74
2021/06/22 03:32:36;;;;;;;5.07;3.00;;;20.10;99.90;;;;;;5086292;28;20039;-75
2021/06/22 03:35:06;;;;;;;4.00;3.30;;;20.10;99.90;;;;;;5093549;28;20027;-74
2021/06/22 03:37:32;;;;;;;3.78;3.00;;;20.10;99.90;;;;;;5092706;28;20036;-75
2021/06/22 03:39:57;;;;;;;3.38;2.75;;;20.10;99.90;;;;;;5082667;28;20075;-75
2021/06/22 03:42:23;;;;;;;3.88;3.05;;;20.10;99.90;;;;;;5078712;28;20036;-75
2021/06/22 03:44:49;;;;;;;5.63;3.17;;;20.10;99.90;;;;;;5073173;28;20438;-75
2021/06/22 03:47:14;;;;;;;3.03;2.40;;;20.00;99.90;;;;;;5073285;28;20028;-75
2021/06/22 03:49:40;;;;;;;3.78;2.80;;;20.00;99.90;;;;;;5072867;28;20386;-74
2021/06/22 03:52:06;;;;;;;5.15;2.80;;;20.00;99.90;;;;;;5081675;28;20035;-74
2021/06/22 03:54:32;;;;;;;4.03;3.05;;;20.00;99.90;;;;;;5092779;28;20384;-74
2021/06/22 03:56:58;;;;;;;3.55;2.80;;;20.00;99.90;;;;;;5093180;28;20463;-74
2021/06/22 03:59:23;;;;;;;4.28;3.25;;;20.00;99.90;;;;;;5091900;28;20073;-74
2021/06/22 04:01:49;;;;;;;3.58;3.00;;;20.00;99.90;;;;;;5086741;28;20549;-75
2021/06/22 04:04:15;;;;;;;5.32;3.25;;;20.00;99.90;;;;;;5072883;28;20103;-73
2021/06/22 04:06:40;;;;;;;4.13;2.88;;;20.00;99.90;;;;;;5072427;28;20031;-75
2021/06/22 04:09:06;;;;;;;7.05;3.35;;;20.00;99.90;;;;;;5072306;28;20111;-74
2021/06/22 04:11:32;;;;;;;3.47;2.88;;;19.90;99.90;;;;;;5074009;28;20020;-74
2021/06/22 04:13:57;;;;;;;3.90;2.83;;;19.90;99.90;;;;;;5074220;28;20033;-74
2021/06/22 04:16:23;;;;;;;3.92;3.30;;;19.90;99.90;;;;;;5072607;28;20028;-75
2021/06/22 04:18:48;;;;;;;4.13;3.17;;;19.90;99.90;;;;;;5072518;28;20025;-75
2021/06/22 04:21:14;;;;;;;4.03;3.22;;;19.90;99.90;;;;;;5076575;28;20024;-73
2021/06/22 04:23:40;;;;;;;3.85;3.08;;;19.90;99.90;;;;;;5092214;28;20067;-75
2021/06/22 04:26:06;;;;;;;4.25;2.97;;;19.90;99.90;;;;;;5091486;28;20089;-75
2021/06/22 04:28:31;;;;;;;3.67;2.80;;;19.80;99.90;;;;;;5092357;28;20020;-77
2021/06/22 04:30:57;;;;;;;3.45;3.15;;;19.90;99.90;;;;;;5089067;28;20107;-75
2021/06/22 04:33:24;;;;;;;4.97;3.10;;;19.80;99.90;;;;;;5072205;28;20036;-74
2021/06/22 04:35:49;;;;;;;4.47;2.90;;;19.80;99.90;;;;;;5070743;28;20396;-75
2021/06/22 04:38:15;;;;;;;5.60;2.95;;;19.80;99.90;;;;;;5072041;28;20024;-75
2021/06/22 04:40:41;;;;;;;4.22;2.90;;;19.80;99.90;;;;;;5071417;28;20028;-75
2021/06/22 04:43:08;;;;;;;3.78;2.63;;;19.80;99.90;;;;;;5071979;28;20043;-76
2021/06/22 04:45:34;;;;;;;2.90;2.60;;;19.80;99.90;;;;;;5071654;28;20498;-75
2021/06/22 04:48:00;;;;;;;4.53;3.33;;;19.80;99.90;;;;;;5071562;28;20020;-74
2021/06/22 04:50:29;;;;;;;4.55;3.05;;;19.80;99.90;;;;;;5071165;28;20028;-75
2021/06/22 04:52:55;;;;;;;4.55;2.90;;;19.80;99.90;;;;;;5089539;28;20582;-74
2021/06/22 04:55:24;;;;;;;4.28;2.72;;;19.80;99.90;;;;;;5092060;28;20028;-75
2021/06/22 04:57:51;;;;;;;4.53;2.97;;;19.70;99.90;;;;;;5092139;28;20032;-75
2021/06/22 05:00:17;;;;;;;4.85;3.20;;;19.70;99.90;;;;;;5088399;28;20444;-75
2021/06/22 05:02:44;;;;;;;5.30;3.15;;;19.70;99.90;;;;;;5072378;28;20033;-75
2021/06/22 05:05:12;;;;;;;4.45;3.00;;;19.70;99.90;;;;;;5072675;28;20035;-75
2021/06/22 05:07:38;;;;;;;3.70;3.00;;;19.70;99.90;;;;;;5071445;28;20028;-75
2021/06/22 05:10:04;;;;;;;5.13;3.03;;;19.70;99.90;;;;;;5071526;28;20089;-75
2021/06/22 05:12:30;;;;;;;4.15;3.00;;;19.70;99.90;;;;;;5089020;28;20031;-75
2021/06/22 05:14:56;;;;;;;4.57;3.05;;;19.70;99.90;;;;;;5092018;28;20108;-75
2021/06/22 05:17:22;;;;;;;5.15;3.03;;;19.60;99.90;;;;;;5091722;28;20035;-75
2021/06/22 05:19:47;;;;;;;4.28;3.10;;;19.60;99.90;;;;;;5091412;28;20020;-74
2021/06/22 05:22:14;;;;;;;4.72;2.88;;;19.60;99.90;;;;;;5075585;28;20036;-75
2021/06/22 05:24:40;;;;;;;3.95;2.67;;;19.60;99.90;;;;;;5071211;28;20031;-75
2021/06/22 05:27:07;;;;;;;5.38;3.00;;;19.60;99.90;;;;;;5071331;28;20024;-74
2021/06/22 05:29:33;;;;;;;4.25;3.00;;;19.60;99.90;;;;;;5071116;28;20047;-75
2021/06/22 05:31:59;;;;;;;5.18;3.00;;;19.60;99.90;;;;;;5070814;28;20124;-76
2021/06/22 05:34:24;;;;;;;6.18;3.22;;;19.60;99.90;;;;;;5071130;28;20541;-75
2021/06/22 05:36:50;;;;;;;6.85;3.28;;;19.60;99.90;;;;;;5071190;28;20392;-75
2021/06/22 05:39:16;;;;;;;3.15;2.70;;;19.60;99.90;;;;;;5071378;28;20024;-76
2021/06/22 05:41:41;;;;;;;4.75;2.80;;;19.60;99.90;;;;;;5069202;28;20105;-75
2021/06/22 05:44:07;;;;;;;4.90;3.08;;;19.60;99.90;;;;;;5078241;28;20495;-75
2021/06/22 05:46:33;;;;;;;5.22;3.05;;;19.60;99.90;;;;;;5091155;28;20035;-75
2021/06/22 05:48:59;;;;;;;5.15;2.83;;;19.60;99.90;;;;;;5091084;28;20059;-74
2021/06/22 05:51:25;;;;;;;3.67;2.92;;;19.60;99.90;;;;;;5083069;28;20128;-75
2021/06/22 05:53:51;;;;;;;5.47;2.90;;;19.50;99.90;;;;;;5071110;28;20574;-75
2021/06/22 05:56:17;;;;;;;3.80;2.83;;;19.50;99.90;;;;;;5071169;28;20464;-74
2021/06/22 05:58:42;;;;;;;4.28;2.90;;;19.50;99.90;;;;;;5070926;28;20040;-75
2021/06/22 06:01:08;;;;;;;3.70;2.80;;;19.50;99.90;;;;;;5081436;28;20039;-74
2021/06/22 06:03:34;;;;;;;5.20;2.97;;;19.50;99.90;;;;;;5095073;28;20032;-74
2021/06/22 06:06:01;;;;;;;4.15;2.97;;;19.50;99.90;;;;;;5095207;28;20031;-74
2021/06/22 06:08:27;;;;;;;5.35;2.90;;;19.50;99.90;;;;;;5095098;28;20081;-76
2021/06/22 06:10:53;;;;;;;4.38;2.85;;;19.50;99.90;;;;;;5087639;28;20419;-75
2021/06/22 06:13:18;;;;;;;3.60;2.88;;;19.50;99.90;;;;;;5074845;28;20029;-76
2021/06/22 06:15:44;;;;;;;4.47;3.08;;;19.50;99.90;;;;;;5074533;28;20074;-74
2021/06/22 06:18:10;;;;;;;4.68;2.90;;;19.50;99.90;;;;;;5074836;28;20523;-74
2021/06/22 06:20:35;;;;;;;3.90;2.90;;;19.50;99.90;;;;;;5078813;28;20032;-74
2021/06/22 06:23:01;;;;;;;4.00;2.70;;;19.50;99.90;;;;;;5094959;28;20130;-74
2021/06/22 06:25:27;;;;;;;3.85;2.53;;;19.50;99.90;;;;;;5081825;28;20029;-74
2021/06/22 06:27:59;;;;;;;5.28;2.80;;;19.40;99.90;;;;;;5074039;28;20382;-79
2021/06/22 06:30:29;;;;;;;3.22;2.63;;;19.50;99.90;;;;;;5075010;28;20016;-78
2021/06/22 06:32:55;;;;;;;4.38;2.58;;;19.50;99.90;;;;;;5073530;28;20411;-79
2021/06/22 06:35:22;;;;;;;4.15;2.50;;;19.50;99.90;;;;;;5074635;28;20025;-80
2021/06/22 06:37:47;;;;;;;4.90;2.72;;;19.50;99.90;;;;;;5074130;28;20496;-78
2021/06/22 06:40:14;;;;;;;5.65;2.72;;;19.50;99.90;;;;;;5074653;28;20028;-76
2021/06/22 06:42:40;;;;;;;6.78;2.70;;;19.50;99.90;;;;;;5089210;28;20169;-74
2021/06/22 06:45:08;;;;;;;7.43;2.78;;;19.60;99.90;;;;;;5073906;28;20392;-73
2021/06/22 06:47:34;;;;;;;6.70;3.00;;;19.60;99.90;;;;;;5076422;28;20134;-75
2021/06/22 06:50:00;;;;;;;4.70;2.90;;;19.60;99.90;;;;;;5074462;28;20401;-75
2021/06/22 06:52:26;;;;;;;6.65;2.90;;;19.50;99.90;;;;;;5074170;28;20028;-72
2021/06/22 06:54:51;;;;;;;9.25;3.05;;;19.50;99.90;;;;;;5075126;28;20381;-75
2021/06/22 06:57:17;;;;;;;7.88;3.10;;;19.60;99.90;;;;;;5074095;28;20436;-75
2021/06/22 06:59:43;;;;;;;5.80;3.10;;;19.50;99.90;;;;;;5073881;28;20572;-76
2021/06/22 07:02:09;;;;;;;6.53;2.85;;;19.50;99.90;;;;;;5077897;28;20059;-74
2021/06/22 07:04:35;;;;;;;8.07;3.30;;;19.50;99.90;;;;;;5094020;28;20024;-75
2021/06/22 07:07:01;;;;;;;5.35;2.92;;;19.50;99.90;;;;;;5094279;28;20054;-75
2021/06/22 07:09:27;;;;;;;4.40;2.70;;;19.50;99.90;;;;;;5094017;28;20518;-75
2021/06/22 07:11:55;;;;;;;4.50;2.88;;;19.50;99.90;;;;;;5093002;28;20429;-75
2021/06/22 07:14:21;;;;;;;5.63;2.92;;;19.50;99.90;;;;;;5086189;28;20058;-74
2021/06/22 07:16:48;;;;;;;4.97;2.80;;;19.50;99.90;;;;;;5088430;28;20055;-75
2021/06/22 07:19:14;;;;;;;7.80;3.00;;;19.50;99.90;;;;;;5080907;28;20104;-75
2021/06/22 07:21:40;;;;;;;4.30;2.80;;;19.50;99.90;;;;;;5073121;28;20662;-74
2021/06/22 07:24:06;;;;;;;6.30;3.28;;;19.40;99.90;;;;;;5073490;28;20111;-73
2021/06/22 07:26:35;;;;;;;7.07;3.45;;;19.50;99.90;;;;;;5077020;28;20027;-74
2021/06/22 07:29:02;;;;;;;6.25;3.10;;;19.50;99.90;;;;;;5081587;28;20028;-74
2021/06/22 07:31:27;;;;;;;5.78;2.80;;;19.50;99.90;;;;;;5073479;28;20043;-73
2021/06/22 07:33:53;;;;;;;5.70;2.90;;;19.50;99.90;;;;;;5073335;28;20021;-73
2021/06/22 07:36:19;;;;;;;4.88;2.47;;;19.50;99.90;;;;;;5073427;28;20031;-74
2021/06/22 07:38:45;;;;;;;6.15;3.20;;;19.60;99.90;;;;;;5072907;28;20366;-76
2021/06/22 07:41:11;;;;;;;5.93;3.25;;;19.60;99.90;;;;;;5075462;28;20054;-77
2021/06/22 07:43:36;;;;;;;5.63;3.05;;;19.60;99.90;;;;;;5071689;28;20032;-74
2021/06/22 07:46:02;;;;;;;5.35;2.97;;;19.70;99.90;;;;;;5070563;28;20151;-73
2021/06/22 07:48:28;;;;;;;5.25;3.33;;;19.70;99.90;;;;;;5072320;28;20032;-74
2021/06/22 07:50:53;;;;;;;6.65;3.30;;;19.70;99.90;;;;;;5071872;28;20025;-75
2021/06/22 07:53:19;;;;;;;4.88;3.15;;;19.70;99.90;;;;;;5072986;28;20039;-76
2021/06/22 07:55:45;;;;;;;4.07;3.20;;;19.70;99.90;;;;;;5073846;28;20042;-75
2021/06/22 07:58:11;;;;;;;4.72;3.28;;;19.80;99.90;;;;;;5072928;28;20110;-75
2021/06/22 08:00:41;;;;;;;5.72;3.30;;;19.80;99.90;;;;;;5072563;28;20028;-75
2021/06/22 08:03:14;;;;;;;7.28;3.38;;;19.80;99.90;;;;;;5072894;28;20036;-75
2021/06/22 08:05:42;;;;;;;5.55;3.55;;;19.80;99.90;;;;;;5072612;28;20080;-76
2021/06/22 08:08:09;;;;;;;6.75;2.80;;;19.80;99.90;;;;;;5071571;28;20024;-76
2021/06/22 08:10:35;;;;;;;5.25;3.40;;;19.80;99.90;;;;;;5070724;28;20040;-76
2021/06/22 08:13:02;;;;;;;5.50;3.20;;;19.80;99.90;;;;;;5052875;28;20438;-76
2021/06/22 08:15:29;;;;;;;4.50;3.22;;;19.90;99.90;;;;;;5065321;28;20050;-79
2021/06/22 08:17:56;;;;;;;5.68;3.10;;;19.90;99.90;;;;;;5076424;28;20652;-78
2021/06/22 08:20:22;;;;;;;5.35;3.13;;;19.90;99.90;;;;;;5082347;28;20028;-78
2021/06/22 08:22:52;;;;;;;6.07;3.42;;;20.00;99.90;;;;;;5092017;28;20062;-75
2021/06/22 08:25:20;;;;;;;6.00;3.15;;;20.00;99.90;;;;;;5092572;28;20081;-77
2021/06/22 08:27:47;;;;;;;8.93;3.25;;;20.00;99.90;;;;;;5092565;28;20055;-80
2021/06/22 08:30:13;;;;;;;5.28;3.13;;;20.00;99.90;;;;;;5077479;28;20033;-79
2021/06/22 08:32:38;;;;;;;5.35;3.50;;;20.00;99.90;;;;;;5072363;28;20025;-76
2021/06/22 08:35:04;;;;;;;6.80;3.38;;;20.00;99.90;;;;;;5072316;28;20021;-77
2021/06/22 08:37:30;;;;;;;5.47;3.40;;;20.00;99.90;;;;;;5072076;28;20025;-77
2021/06/22 08:39:56;;;;;;;6.55;3.58;;;20.00;99.90;;;;;;5071918;28;20031;-74
2021/06/22 08:42:23;;;;;;;5.60;3.53;;;20.10;99.90;;;;;;5072022;28;20519;-75
2021/06/22 08:44:50;;;;;;;5.18;3.28;;;20.00;99.90;;;;;;5071875;28;20361;-76
2021/06/22 08:47:23;;;;;;;5.20;3.25;;;20.10;99.90;;;;;;5071920;28;20028;-76
2021/06/22 08:49:53;;;;;;;4.90;3.30;;;20.10;99.90;;;;;;5072399;28;20032;-73
2021/06/22 08:52:24;;;;;;;7.35;3.55;;;20.10;99.90;;;;;;5074279;28;20040;-74
2021/06/22 08:54:53;;;;;;;6.95;2.90;;;20.10;99.90;;;;;;5071729;28;20093;-75
2021/06/22 08:57:23;;;;;;;7.68;3.70;;;20.20;99.90;;;;;;5071915;28;20023;-76
2021/06/22 08:59:49;;;;;;;3.95;2.95;;;20.20;99.90;;;;;;5071968;28;20028;-75
2021/06/22 09:02:25;;;;;;;5.57;3.15;;;20.20;99.90;;;;;;5071784;28;20032;-76
2021/06/22 09:04:52;;;;;;;6.40;3.80;;;20.20;99.90;;;;;;5071717;28;20024;-76
2021/06/22 09:07:43;;;;;;;6.07;3.20;;;20.20;99.90;;;;;;5071599;28;20053;-78
2021/06/22 09:10:17;;;;;;;4.22;3.15;;;20.20;99.90;;;;;;5071344;28;20045;-77
2021/06/22 09:12:42;;;;;;;4.18;3.45;;;20.20;99.90;;;;;;5071103;28;20028;-77
2021/06/22 09:15:23;;;;;;;6.50;3.42;;;20.20;99.90;;;;;;5071605;28;20044;-76
2021/06/22 09:17:49;;;;;;;5.88;3.42;;;20.20;99.90;;;;;;5070214;28;20017;-77
2021/06/22 09:20:40;;;;;;;6.57;3.45;;;20.30;99.90;;;;;;5071456;28;20388;-74
2021/06/22 09:23:24;;;;;;;4.68;3.42;;;20.30;99.90;;;;;;5070419;28;20041;-75
2021/06/22 09:25:55;;;;;;;5.10;3.70;;;20.30;99.90;;;;;;5071349;28;20032;-73
2021/06/22 09:28:30;;;;;;;5.28;3.30;;;20.30;99.90;;;;;;5071466;28;20069;-75
2021/06/22 09:31:03;;;;;;;5.18;3.65;;;20.30;99.90;;;;;;5071488;28;20028;-74
2021/06/22 09:33:43;;;;;;;4.85;3.58;;;20.30;99.90;;;;;;5071238;28;20020;-74
2021/06/22 09:36:22;;;;;;;7.10;3.53;;;20.30;99.90;;;;;;5069929;28;20037;-75
2021/06/22 09:38:51;;;;;;;5.43;3.47;;;20.30;99.90;;;;;;5070922;28;20021;-74
2021/06/22 09:41:26;;;;;;;5.88;3.60;;;20.40;99.90;;;;;;5071430;28;20381;-75
2021/06/22 09:44:01;;;;;;;4.20;3.67;;;20.30;99.90;;;;;;5071107;28;20472;-71
2021/06/22 09:46:38;;;;;;;5.47;3.15;;;20.40;99.90;;;;;;5071020;28;20028;-70
2021/06/22 09:49:06;;;;;;;4.90;3.25;;;20.40;99.90;;;;;;5071725;28;20170;-71
2021/06/22 09:51:37;;;;;;;5.22;3.65;;;20.50;99.90;;;;;;5071249;28;20107;-73
2021/06/22 09:54:11;;;;;;;6.75;3.60;;;20.50;99.90;;;;;;5071709;28;20029;-73
2021/06/22 09:56:37;;;;;;;4.63;3.53;;;20.60;99.90;;;;;;5070792;28;20029;-71
2021/06/22 09:59:07;;;;;;;6.43;3.58;;;20.70;99.90;;;;;;5071310;28;20032;-75
2021/06/22 10:01:37;;;;;;;4.20;3.75;;;20.70;99.90;;;;;;5071011;28;20036;-72
2021/06/22 10:04:27;;;;;;;4.95;3.60;;;20.80;99.90;;;;;;5071333;28;20051;-71
2021/06/22 10:06:58;;;;;;;7.15;3.72;;;20.80;99.90;;;;;;5071301;28;20017;-72
2021/06/22 10:09:30;;;;;;;6.00;3.85;;;20.90;99.90;;;;;;5070709;28;20077;-72
2021/06/22 10:12:10;;;;;;;4.78;3.97;;;20.90;99.90;;;;;;5070109;28;20527;-70
2021/06/22 10:14:38;;;;;;;5.65;3.90;;;20.90;99.90;;;;;;5070935;28;20036;-73
2021/06/22 10:17:07;;;;;;;5.13;3.83;;;20.90;99.90;;;;;;5070714;28;20025;-70
2021/06/22 10:19:33;;;;;;;4.55;3.70;;;21.00;99.90;;;;;;5070214;28;20086;-69
2021/06/22 10:22:01;;;;;;;4.35;3.80;;;21.00;99.90;;;;;;5070290;28;20072;-72
2021/06/22 10:24:28;;;;;;;5.03;3.78;;;21.10;99.90;;;;;;5054558;28;20085;-68
2021/06/22 10:26:57;;;;;;;5.82;3.92;;;21.10;99.90;;;;;;5070825;28;20024;-70
2021/06/22 10:29:24;;;;;;;5.25;3.97;;;21.10;99.90;;;;;;5090896;28;20085;-74
2021/06/22 10:31:52;;;;;;;5.82;3.85;;;21.20;99.90;;;;;;5078640;28;20078;-75
2021/06/22 10:34:18;;;;;;;4.40;3.20;;;21.20;99.90;;;;;;5050793;28;20480;-76
2021/06/22 10:37:21;;;;;;;6.60;4.15;;;21.10;99.90;;;;;;5050303;28;20469;-76
2021/06/22 10:40:02;;;;;;;5.10;3.33;;;21.00;99.90;;;;;;5050516;28;20032;-74
2021/06/22 10:42:49;;;;;;;5.22;3.78;;;20.90;99.90;;;;;;5069092;28;20081;-75
2021/06/22 10:45:15;;;;;;;5.50;3.83;;;20.90;99.90;;;;;;5069260;28;20460;-75
2021/06/22 10:47:42;;;;;;;6.15;4.15;;;20.80;99.90;;;;;;5071056;28;20029;-75
2021/06/22 10:50:08;;;;;;;4.93;4.20;;;20.90;99.90;;;;;;5073295;28;20432;-76
2021/06/22 10:52:43;;;;;;;4.97;4.30;;;20.90;99.90;;;;;;5076428;28;20032;-76
2021/06/22 10:55:44;;;;;;;4.95;3.63;;;20.80;99.90;;;;;;5077490;28;20020;-75
2021/06/22 10:58:14;;;;;;;5.03;3.90;;;20.80;99.90;;;;;;5074928;28;20016;-75
2021/06/22 11:00:44;;;;;;;5.68;4.10;;;20.80;99.90;;;;;;5073450;28;20033;-74
2021/06/22 11:03:28;;;;;;;6.63;4.88;;;20.80;99.90;;;;;;5073981;28;20036;-75
2021/06/22 11:06:05;;;;;;;;;;;20.80;99.90;;;;;;5074339;28;20476;-75
2021/06/22 11:08:32;;;;;;;5.88;4.50;;;20.80;99.90;;;;;;5073734;28;20360;-75
2021/06/22 11:11:07;;;;;;;5.22;4.20;;;20.80;99.90;;;;;;5073840;28;20028;-74
2021/06/22 11:13:41;;;;;;;7.22;4.47;;;20.80;99.90;;;;;;5073512;28;20027;-74
2021/06/22 11:16:18;;;;;;;5.68;4.63;;;20.80;99.90;;;;;;5073405;28;20020;-75
2021/06/22 11:18:56;;;;;;;6.07;4.68;;;20.80;99.90;;;;;;5076215;28;20103;-75
2021/06/22 11:21:42;;;;;;;7.10;5.07;;;20.70;99.90;;;;;;5073464;28;20024;-75
2021/06/22 11:24:15;;;;;;;7.53;5.63;;;20.70;99.90;;;;;;5074117;28;20421;-75
2021/06/22 11:26:49;;;;;;;8.30;5.18;;;20.70;99.90;;;;;;5073238;28;20487;-75
2021/06/22 11:29:17;;;;;;;4.88;4.38;;;20.60;99.90;;;;;;5073655;28;20029;-70
2021/06/22 11:31:51;;;;;;;5.72;4.75;;;20.60;99.90;;;;;;5072983;28;20560;-69
2021/06/22 11:34:21;;;;;;;8.07;5.15;;;20.60;99.90;;;;;;5073084;28;20420;-70
2021/06/22 11:36:48;;;;;;;6.03;4.93;;;20.60;99.90;;;;;;5073134;28;20023;-71
2021/06/22 11:39:20;;;;;;;7.20;5.50;;;20.70;99.90;;;;;;5073206;28;20021;-70
2021/06/22 11:42:25;;;;;;;8.98;6.30;;;20.70;99.90;;;;;;5072776;28;20086;-70
2021/06/22 11:44:53;;;;;;;6.53;5.30;;;20.70;99.90;;;;;;5072853;28;20044;-71
2021/06/22 11:47:25;;;;;;;7.43;5.95;;;20.70;99.90;;;;;;5072995;28;20082;-70
2021/06/22 11:49:52;;;;;;;8.25;6.13;;;20.70;99.90;;;;;;5072520;28;20384;-70
2021/06/22 11:52:20;;;;;;;10.07;7.35;;;20.70;99.90;;;;;;5073027;28;20024;-69
2021/06/22 11:54:54;;;;;;;7.90;6.45;;;20.70;99.90;;;;;;5071063;28;20028;-70
2021/06/22 11:57:31;;;;;;;9.27;7.20;;;20.70;99.90;;;;;;5072460;28;20025;-73
2021/06/22 12:00:09;;;;;;;9.40;7.50;;;20.80;99.90;;;;;;5072383;28;20029;-72
2021/06/22 12:02:35;;;;;;;9.45;7.95;;;20.80;99.90;;;;;;5072368;28;20040;-70
2021/06/22 12:05:13;;;;;;;7.82;7.13;;;20.80;99.90;;;;;;5072957;28;20051;-70
2021/06/22 12:07:53;;;;;;;8.43;7.50;;;20.80;99.90;;;;;;5072692;28;20111;-72
2021/06/22 12:10:21;;;;;;;10.35;7.75;;;20.90;99.90;;;;;;5072619;28;20044;-70
2021/06/22 12:12:49;;;;;;;10.30;9.02;;;20.90;99.90;;;;;;5072467;28;20430;-71
2021/06/22 12:15:36;;;;;;;9.43;8.32;;;20.90;99.90;;;;;;5072908;28;20031;-70
2021/06/22 12:18:03;;;;;;;11.32;8.40;;;21.00;99.90;;;;;;5072760;28;20082;-70
2021/06/22 12:20:31;;;;;;;13.80;9.35;;;21.00;99.90;;;;;;5072267;28;20537;-71
2021/06/22 12:23:23;;;;;;;10.60;9.15;;;21.10;99.90;;;;;;5072356;28;20032;-70
2021/06/22 12:25:53;;;;;;;10.50;8.93;;;21.10;99.90;;;;;;5069697;28;20037;-69
2021/06/22 12:28:22;;;;;;;11.63;9.82;;;21.10;99.90;;;;;;5072400;28;20029;-73
2021/06/22 12:30:51;;;;;;;11.70;10.50;;;21.10;99.90;;;;;;5071787;28;20488;-70
2021/06/22 12:33:19;;;;;;;11.88;10.68;;;21.10;99.90;;;;;;5072245;28;20523;-70
2021/06/22 12:35:50;;;;;;;11.43;10.23;;;21.10;99.90;;;;;;5072100;28;20162;-68
2021/06/22 12:38:18;;;;;;;12.38;10.68;;;21.10;99.90;;;;;;5072278;28;20035;-70
2021/06/22 12:40:52;;;;;;;13.48;11.18;;;21.20;99.90;;;;;;5071867;28;20020;-70
2021/06/22 12:43:18;;;;;;;;;;;21.10;99.90;;;;;;5072477;28;20048;-71
2021/06/22 12:45:46;;;;;;;15.07;12.35;;;21.10;99.90;;;;;;5071990;28;19905;-70
2021/06/22 12:48:13;;;;;;;13.45;12.00;;;21.10;99.90;;;;;;5072242;28;20431;-72
2021/06/22 12:50:41;;;;;;;13.95;12.55;;;21.00;99.90;;;;;;5072037;28;20020;-74
2021/06/22 12:53:11;;;;;;;13.82;12.35;;;21.10;99.90;;;;;;5072138;28;20029;-71